createdAt,value
2023-03-19T00:00:37.751Z,12.90
2023-03-19T00:03:05.817Z,12.80
2023-03-19T00:05:33.445Z,12.70
2023-03-19T00:08:00.564Z,12.60
2023-03-19T00:10:27.545Z,12.50
2023-03-19T00:12:54.352Z,12.60
2023-03-19T00:15:21.233Z,12.60
2023-03-19T00:17:48.681Z,12.60
2023-03-19T00:20:15.893Z,12.50
2023-03-19T00:22:43.108Z,12.40
2023-03-19T00:25:10.311Z,12.50
2023-03-19T00:27:38.266Z,12.70
2023-03-19T00:30:07.019Z,12.80
2023-03-19T00:32:34.153Z,12.80
2023-03-19T00:35:01.465Z,12.70
2023-03-19T00:37:28.630Z,12.70
2023-03-19T00:39:56.163Z,12.60
2023-03-19T00:42:23.347Z,12.60
2023-03-19T00:44:50.359Z,12.50
2023-03-19T00:47:17.388Z,12.40
2023-03-19T00:49:44.469Z,12.20
2023-03-19T00:52:11.615Z,12.50
2023-03-19T00:54:38.491Z,12.50
2023-03-19T00:57:09.805Z,12.60
2023-03-19T00:59:36.951Z,12.60
2023-03-19T01:02:04.601Z,12.60
2023-03-19T01:04:31.615Z,12.50
2023-03-19T01:09:26.057Z,12.60
2023-03-19T01:11:53.162Z,12.40
2023-03-19T01:14:20.594Z,12.40
2023-03-19T01:16:47.579Z,12.30
2023-03-19T01:19:16.017Z,12.30
2023-03-19T01:21:46.313Z,12.20
2023-03-19T01:24:13.500Z,12.10
2023-03-19T01:26:40.651Z,12.10
2023-03-19T01:29:08.280Z,12.20
2023-03-19T01:31:35.929Z,12.10
2023-03-19T01:34:03.030Z,12.20
2023-03-19T01:36:29.895Z,12.00
2023-03-19T01:38:57.200Z,12.00
2023-03-19T01:41:24.929Z,12.10
2023-03-19T01:43:51.788Z,12.20
2023-03-19T01:46:34.982Z,12.00
2023-03-19T01:49:06.378Z,12.00
2023-03-19T01:51:41.983Z,11.90
2023-03-19T01:54:19.605Z,11.80
2023-03-19T01:56:51.345Z,11.80
2023-03-19T01:59:30.156Z,11.70
2023-03-19T02:02:01.468Z,11.70
2023-03-19T02:04:31.858Z,11.70
2023-03-19T02:07:01.283Z,11.70
2023-03-19T02:09:29.401Z,11.90
2023-03-19T02:11:57.651Z,11.90
2023-03-19T02:14:24.957Z,11.80
2023-03-19T02:16:52.971Z,11.70
2023-03-19T02:19:48.460Z,11.60
2023-03-19T02:22:22.854Z,11.50
2023-03-19T02:25:05.257Z,11.70
2023-03-19T02:27:32.421Z,11.70
2023-03-19T02:29:59.330Z,11.60
2023-03-19T02:32:27.167Z,11.50
2023-03-19T02:34:54.007Z,11.40
2023-03-19T02:37:28.210Z,11.50
2023-03-19T02:40:00.905Z,11.50
2023-03-19T02:42:29.260Z,11.30
2023-03-19T02:44:56.563Z,11.10
2023-03-19T02:47:25.469Z,10.90
2023-03-19T02:49:52.620Z,10.80
2023-03-19T02:52:19.588Z,10.80
2023-03-19T02:54:46.816Z,11.00
2023-03-19T02:57:13.692Z,11.00
2023-03-19T02:59:40.552Z,11.00
2023-03-19T03:02:08.278Z,10.90
2023-03-19T03:04:37.063Z,10.90
2023-03-19T03:07:05.120Z,11.00
2023-03-19T03:09:32.754Z,11.00
2023-03-19T03:11:59.658Z,10.90
2023-03-19T03:14:26.565Z,11.00
2023-03-19T03:16:53.443Z,11.00
2023-03-19T03:19:21.538Z,11.00
2023-03-19T03:21:48.566Z,10.90
2023-03-19T03:24:15.721Z,10.90
2023-03-19T03:26:42.764Z,10.80
2023-03-19T03:29:09.822Z,10.70
2023-03-19T03:31:39.532Z,10.80
2023-03-19T03:34:06.462Z,10.70
2023-03-19T03:36:33.940Z,10.70
2023-03-19T03:39:00.864Z,10.60
2023-03-19T03:41:27.673Z,10.40
2023-03-19T03:43:54.643Z,10.30
2023-03-19T03:46:21.685Z,10.40
2023-03-19T03:48:49.808Z,10.30
2023-03-19T03:51:17.670Z,10.40
2023-03-19T03:53:44.724Z,10.20
2023-03-19T03:56:11.947Z,10.20
2023-03-19T03:58:39.350Z,10.40
2023-03-19T04:01:07.882Z,10.40
2023-03-19T04:03:34.923Z,10.50
2023-03-19T04:06:02.188Z,10.30
2023-03-19T04:08:29.975Z,10.40
2023-03-19T04:10:58.209Z,10.10
2023-03-19T04:13:25.455Z,10.20
2023-03-19T04:15:54.795Z,10.20
2023-03-19T04:18:22.151Z,10.30
2023-03-19T04:20:49.027Z,10.40
2023-03-19T04:23:16.254Z,10.60
2023-03-19T04:25:43.324Z,10.50
2023-03-19T04:28:10.524Z,10.70
2023-03-19T04:30:38.280Z,10.70
2023-03-19T04:33:05.501Z,10.40
2023-03-19T04:35:32.434Z,10.60
2023-03-19T04:37:59.368Z,10.70
2023-03-19T04:40:26.378Z,10.60
2023-03-19T04:42:53.666Z,10.70
2023-03-19T04:45:21.829Z,10.80
2023-03-19T04:47:48.697Z,10.70
2023-03-19T04:50:16.076Z,10.70
2023-03-19T04:52:43.123Z,10.80
2023-03-19T04:55:10.389Z,10.80
2023-03-19T04:57:37.420Z,11.00
2023-03-19T05:00:04.644Z,11.00
2023-03-19T05:02:31.555Z,10.90
2023-03-19T05:04:58.481Z,10.80
2023-03-19T05:07:26.454Z,10.80
2023-03-19T05:09:53.333Z,10.80
2023-03-19T05:12:20.267Z,11.00
2023-03-19T05:14:47.116Z,10.80
2023-03-19T05:17:15.797Z,10.70
2023-03-19T05:19:43.535Z,10.80
2023-03-19T05:22:10.653Z,10.60
2023-03-19T05:24:37.541Z,10.60
2023-03-19T05:27:04.518Z,10.50
2023-03-19T05:29:31.484Z,10.70
2023-03-19T05:31:58.325Z,10.70
2023-03-19T05:34:25.616Z,10.60
2023-03-19T05:36:52.484Z,10.60
2023-03-19T05:39:19.698Z,10.70
2023-03-19T05:41:46.770Z,10.80
2023-03-19T05:44:14.510Z,10.70
2023-03-19T05:46:41.790Z,10.70
2023-03-19T05:49:08.721Z,10.60
2023-03-19T05:51:36.783Z,10.70
2023-03-19T05:54:03.978Z,10.60
2023-03-19T05:56:31.019Z,10.60
2023-03-19T05:58:58.057Z,10.60
2023-03-19T06:01:25.518Z,10.50
2023-03-19T06:03:55.157Z,10.60
2023-03-19T06:06:22.874Z,10.70
2023-03-19T06:08:49.667Z,10.70
2023-03-19T06:11:16.682Z,10.80
2023-03-19T06:13:43.648Z,10.80
2023-03-19T06:16:10.723Z,10.70
2023-03-19T06:18:38.344Z,10.70
2023-03-19T06:21:05.945Z,10.70
2023-03-19T06:23:32.779Z,10.70
2023-03-19T06:25:59.945Z,10.60
2023-03-19T06:28:27.705Z,10.70
2023-03-19T06:30:56.088Z,10.80
2023-03-19T06:33:22.981Z,10.80
2023-03-19T06:35:49.798Z,10.80
2023-03-19T06:38:16.798Z,11.00
2023-03-19T06:40:43.669Z,10.90
2023-03-19T06:43:10.706Z,10.80
2023-03-19T06:45:37.654Z,10.80
2023-03-19T06:48:04.715Z,10.60
2023-03-19T06:50:32.915Z,10.70
2023-03-19T06:53:00.583Z,10.80
2023-03-19T06:55:33.214Z,10.90
2023-03-19T06:58:00.452Z,10.90
2023-03-19T07:00:27.998Z,10.80
2023-03-19T07:02:55.864Z,10.90
2023-03-19T07:05:26.314Z,11.00
2023-03-19T07:07:55.578Z,11.10
2023-03-19T07:10:23.042Z,10.90
2023-03-19T07:12:54.336Z,11.00
2023-03-19T07:15:24.158Z,11.20
2023-03-19T07:17:51.057Z,11.10
2023-03-19T07:20:18.111Z,11.10
2023-03-19T07:22:44.888Z,10.90
2023-03-19T07:25:11.866Z,11.20
2023-03-19T07:27:40.275Z,11.10
2023-03-19T07:30:07.809Z,10.90
2023-03-19T07:32:34.830Z,10.90
2023-03-19T07:35:02.708Z,10.70
2023-03-19T07:37:33.993Z,10.70
2023-03-19T07:40:05.912Z,10.70
2023-03-19T07:42:33.396Z,10.90
2023-03-19T07:45:12.431Z,10.90
2023-03-19T07:47:40.232Z,10.80
2023-03-19T07:50:18.492Z,10.80
2023-03-19T07:52:51.392Z,10.80
2023-03-19T07:55:18.547Z,10.80
2023-03-19T07:57:45.380Z,10.90
2023-03-19T08:00:13.083Z,11.00
2023-03-19T08:02:40.580Z,10.90
2023-03-19T08:05:08.673Z,11.20
2023-03-19T08:07:36.528Z,11.20
2023-03-19T08:10:07.393Z,11.10
2023-03-19T08:12:39.722Z,11.20
2023-03-19T08:15:08.282Z,11.30
2023-03-19T08:17:38.209Z,11.30
2023-03-19T08:20:11.383Z,11.50
2023-03-19T08:22:39.299Z,11.50
2023-03-19T08:25:07.231Z,11.40
2023-03-19T08:27:35.806Z,11.60
2023-03-19T08:30:04.919Z,11.50
2023-03-19T08:32:32.097Z,11.70
2023-03-19T08:34:59.083Z,11.60
2023-03-19T08:37:26.066Z,11.70
2023-03-19T08:39:53.386Z,11.60
2023-03-19T08:42:22.153Z,11.70
2023-03-19T08:44:50.262Z,11.70
2023-03-19T08:47:17.302Z,11.70
2023-03-19T08:49:44.162Z,11.60
2023-03-19T08:52:11.780Z,11.50
2023-03-19T08:54:38.962Z,11.60
2023-03-19T08:57:06.233Z,11.50
2023-03-19T08:59:34.308Z,11.60
2023-03-19T09:02:01.720Z,11.60
2023-03-19T09:04:29.426Z,11.60
2023-03-19T09:06:56.812Z,11.70
2023-03-19T09:09:27.819Z,11.70
2023-03-19T09:11:54.693Z,11.80
2023-03-19T09:14:23.193Z,11.90
2023-03-19T09:16:50.309Z,11.90
2023-03-19T09:19:17.454Z,11.90
2023-03-19T09:21:44.999Z,11.90
2023-03-19T09:24:12.286Z,11.80
2023-03-19T09:26:39.212Z,11.70
2023-03-19T09:29:06.270Z,11.80
2023-03-19T09:31:33.605Z,12.00
2023-03-19T09:34:00.632Z,12.00
2023-03-19T09:36:27.509Z,12.00
2023-03-19T09:38:55.018Z,12.20
2023-03-19T09:41:35.720Z,12.30
2023-03-19T09:44:11.220Z,12.40
2023-03-19T09:47:17.104Z,12.60
2023-03-19T09:49:48.467Z,12.60
2023-03-19T09:52:30.534Z,12.70
2023-03-19T09:55:04.612Z,12.90
2023-03-19T09:57:40.584Z,12.90
2023-03-19T10:00:22.976Z,13.00
2023-03-19T10:02:57.265Z,13.20
2023-03-19T10:05:37.345Z,13.50
2023-03-19T10:08:17.202Z,13.90
2023-03-19T10:11:16.490Z,14.10
2023-03-19T10:14:15.214Z,14.40
2023-03-19T10:16:46.782Z,14.40
2023-03-19T10:19:24.778Z,14.50
2023-03-19T10:21:58.934Z,14.70
2023-03-19T10:24:33.417Z,15.10
2023-03-19T10:27:13.337Z,15.40
2023-03-19T10:29:41.509Z,15.50
2023-03-19T10:32:39.370Z,15.60
2023-03-19T10:35:18.092Z,15.50
2023-03-19T10:37:45.080Z,15.40
2023-03-19T10:40:44.528Z,15.40
2023-03-19T10:43:22.795Z,15.60
2023-03-19T10:45:49.792Z,15.80
2023-03-19T10:48:18.497Z,15.70
2023-03-19T10:51:01.280Z,15.50
2023-03-19T10:53:37.146Z,14.80
2023-03-19T10:56:20.283Z,14.70
2023-03-19T10:59:05.842Z,14.60
2023-03-19T11:01:36.492Z,14.40
2023-03-19T11:04:19.483Z,14.00
2023-03-19T11:07:14.185Z,13.50
2023-03-19T11:09:45.815Z,13.30
2023-03-19T11:12:21.853Z,13.40
2023-03-19T11:14:52.420Z,13.50
2023-03-19T11:17:38.998Z,13.60
2023-03-19T11:20:28.468Z,13.70
2023-03-19T11:22:59.522Z,13.70
2023-03-19T11:25:37.710Z,13.60
2023-03-19T11:28:34.475Z,13.70
2023-03-19T11:31:34.291Z,13.70
2023-03-19T11:34:01.142Z,13.30
2023-03-19T11:36:59.480Z,13.20
2023-03-19T11:39:42.456Z,13.30
2023-03-19T11:42:38.264Z,13.20
2023-03-19T11:45:23.676Z,13.20
2023-03-19T11:48:31.737Z,13.20
2023-03-19T11:51:11.384Z,13.30
2023-03-19T11:53:41.744Z,13.10
2023-03-19T11:56:15.445Z,13.20
2023-03-19T11:58:48.425Z,13.20
2023-03-19T12:01:49.639Z,13.10
2023-03-19T12:04:59.503Z,13.00
2023-03-19T12:07:36.065Z,12.90
2023-03-19T12:10:52.736Z,13.10
2023-03-19T12:13:37.883Z,13.30
2023-03-19T12:16:17.050Z,13.00
2023-03-19T12:18:47.333Z,13.00
2023-03-19T12:21:44.883Z,13.00
2023-03-19T12:24:50.820Z,13.00
2023-03-19T12:27:43.046Z,13.10
2023-03-19T12:30:50.280Z,13.00
2023-03-19T12:33:23.053Z,12.90
2023-03-19T12:35:55.488Z,13.00
2023-03-19T12:38:41.658Z,13.00
2023-03-19T12:41:11.770Z,13.00
2023-03-19T12:43:57.258Z,13.10
2023-03-19T12:46:30.207Z,13.10
2023-03-19T12:49:15.531Z,13.10
2023-03-19T12:51:49.539Z,13.10
2023-03-19T12:54:23.974Z,13.00
2023-03-19T12:57:07.225Z,13.10
2023-03-19T12:59:40.365Z,13.20
2023-03-19T13:03:07.021Z,13.30
2023-03-19T13:06:05.972Z,13.40
2023-03-19T13:08:35.426Z,13.40
2023-03-19T13:11:06.743Z,13.50
2023-03-19T13:13:56.237Z,13.60
2023-03-19T13:16:44.376Z,13.60
2023-03-19T13:19:18.323Z,13.50
2023-03-19T13:21:47.438Z,13.60
2023-03-19T13:24:17.332Z,13.40
2023-03-19T13:26:45.423Z,13.40
2023-03-19T13:29:22.764Z,13.30
2023-03-19T13:31:50.906Z,13.10
2023-03-19T13:34:17.986Z,13.10
2023-03-19T13:36:51.809Z,13.00
2023-03-19T13:39:27.402Z,12.90
2023-03-19T13:42:14.465Z,12.90
2023-03-19T13:44:49.575Z,12.80
2023-03-19T13:47:28.954Z,12.80
2023-03-19T13:50:22.538Z,12.80
2023-03-19T13:52:52.486Z,12.70
2023-03-19T13:55:30.865Z,12.80
2023-03-19T13:58:12.718Z,12.80
2023-03-19T14:00:43.047Z,13.10
2023-03-19T14:03:25.602Z,13.10
2023-03-19T14:05:56.726Z,13.20
2023-03-19T14:08:47.348Z,13.00
2023-03-19T14:11:30.710Z,13.10
2023-03-19T14:14:07.788Z,12.90
2023-03-19T14:16:39.328Z,12.80
2023-03-19T14:19:12.247Z,13.00
2023-03-19T14:22:02.592Z,13.00
2023-03-19T14:27:27.373Z,13.50
2023-03-19T14:29:55.413Z,13.60
2023-03-19T14:32:32.132Z,13.40
2023-03-19T14:34:59.882Z,13.50
2023-03-19T14:37:36.408Z,13.50
2023-03-19T14:40:22.242Z,13.40
2023-03-19T14:43:08.158Z,13.50
2023-03-19T14:46:02.757Z,13.40
2023-03-19T14:49:10.138Z,13.40
2023-03-19T14:51:40.635Z,13.50
2023-03-19T14:54:20.306Z,13.50
2023-03-19T14:56:48.774Z,13.40
2023-03-19T14:59:16.117Z,13.40
2023-03-19T15:01:51.237Z,13.30
2023-03-19T15:04:22.844Z,13.40
2023-03-19T15:07:01.474Z,13.10
2023-03-19T15:09:34.091Z,12.90
2023-03-19T15:12:13.043Z,12.80
2023-03-19T15:15:04.745Z,12.80
2023-03-19T15:17:32.504Z,12.60
2023-03-19T15:20:03.875Z,12.60
2023-03-19T15:22:35.343Z,12.80
2023-03-19T15:25:14.848Z,12.70
2023-03-19T15:27:42.758Z,12.80
2023-03-19T15:30:28.849Z,12.80
2023-03-19T15:33:10.512Z,12.60
2023-03-19T15:35:41.736Z,12.60
2023-03-19T15:38:12.398Z,12.70
2023-03-19T15:40:41.407Z,12.70
2023-03-19T15:43:10.366Z,12.80
2023-03-19T15:45:38.272Z,12.90
2023-03-19T15:48:16.600Z,13.00
2023-03-19T15:50:46.387Z,13.00
2023-03-19T15:53:18.437Z,12.70
2023-03-19T15:55:48.071Z,12.80
2023-03-19T15:58:24.697Z,12.90
2023-03-19T16:00:54.104Z,12.80
2023-03-19T16:03:44.145Z,12.90
2023-03-19T16:06:41.956Z,13.00
2023-03-19T16:09:18.229Z,12.90
2023-03-19T16:11:49.163Z,12.90
2023-03-19T16:14:23.187Z,12.90
2023-03-19T16:16:50.881Z,12.90
2023-03-19T16:19:37.870Z,13.10
2023-03-19T16:22:15.007Z,12.90
2023-03-19T16:24:45.080Z,12.80
2023-03-19T16:27:38.828Z,12.70
2023-03-19T16:30:25.504Z,12.70
2023-03-19T16:33:01.131Z,12.50
2023-03-19T16:35:30.447Z,12.70
2023-03-19T16:38:25.117Z,12.60
2023-03-19T16:41:23.258Z,12.70
2023-03-19T16:43:54.455Z,12.90
2023-03-19T16:46:21.669Z,13.00
2023-03-19T16:48:48.728Z,13.00
2023-03-19T16:51:21.115Z,12.90
2023-03-19T16:53:49.279Z,12.90
2023-03-19T16:56:16.829Z,13.00
2023-03-19T16:58:44.997Z,12.80
2023-03-19T17:01:14.500Z,12.90
2023-03-19T17:03:42.613Z,12.90
2023-03-19T17:06:12.091Z,12.90
2023-03-19T17:08:39.578Z,12.90
2023-03-19T17:11:09.453Z,12.80
2023-03-19T17:13:37.590Z,12.80
2023-03-19T17:16:07.148Z,12.70
2023-03-19T17:18:36.756Z,12.60
2023-03-19T17:21:15.255Z,12.70
2023-03-19T17:23:42.707Z,12.40
2023-03-19T17:26:17.390Z,12.20
2023-03-19T17:28:45.275Z,12.20
2023-03-19T17:31:27.467Z,12.00
2023-03-19T17:34:06.267Z,11.90
2023-03-19T17:36:33.806Z,11.90
2023-03-19T17:39:00.702Z,11.80
2023-03-19T17:41:33.033Z,11.70
2023-03-19T17:44:06.263Z,11.60
2023-03-19T17:46:41.528Z,11.60
2023-03-19T17:49:33.875Z,11.60
2023-03-19T17:52:01.687Z,11.60
2023-03-19T17:54:28.780Z,11.30
2023-03-19T17:56:56.225Z,11.20
2023-03-19T17:59:23.909Z,11.20
2023-03-19T18:01:52.301Z,11.20
2023-03-19T18:04:21.687Z,11.10
2023-03-19T18:06:58.834Z,11.00
2023-03-19T18:09:32.874Z,11.00
2023-03-19T18:11:59.884Z,10.90
2023-03-19T18:14:26.874Z,10.80
2023-03-19T18:16:53.870Z,10.70
2023-03-19T18:19:30.822Z,10.50
2023-03-19T18:21:58.087Z,10.50
2023-03-19T18:24:25.371Z,10.50
2023-03-19T18:26:52.252Z,10.50
2023-03-19T18:29:19.241Z,10.60
2023-03-19T18:31:49.210Z,10.50
2023-03-19T18:34:17.194Z,10.30
2023-03-19T18:36:44.380Z,10.40
2023-03-19T18:39:14.293Z,10.30
2023-03-19T18:41:41.874Z,10.20
2023-03-19T18:44:09.695Z,10.10
2023-03-19T18:46:38.526Z,10.20
2023-03-19T18:49:25.256Z,10.10
2023-03-19T18:52:08.674Z,9.90
2023-03-19T18:54:35.834Z,9.90
2023-03-19T18:57:03.058Z,9.90
2023-03-19T18:59:33.234Z,10.00
2023-03-19T19:02:34.003Z,10.20
2023-03-19T19:05:01.803Z,10.00
2023-03-19T19:07:28.882Z,9.80
2023-03-19T19:09:55.899Z,9.60
2023-03-19T19:12:23.330Z,9.60
2023-03-19T19:14:50.363Z,9.60
2023-03-19T19:17:21.244Z,9.50
2023-03-19T19:19:48.231Z,9.50
2023-03-19T19:22:17.729Z,9.30
2023-03-19T19:24:45.447Z,9.40
2023-03-19T19:27:22.556Z,9.40
2023-03-19T19:29:50.327Z,9.40
2023-03-19T19:32:26.324Z,9.40
2023-03-19T19:34:53.923Z,9.40
2023-03-19T19:37:23.278Z,9.30
2023-03-19T19:39:51.292Z,9.30
2023-03-19T19:42:21.173Z,9.20
2023-03-19T19:44:55.250Z,9.10
2023-03-19T19:47:22.430Z,9.00
2023-03-19T19:49:49.862Z,9.00
2023-03-19T19:52:21.528Z,8.90
2023-03-19T19:54:49.007Z,8.80
2023-03-19T19:57:24.909Z,8.80
2023-03-19T19:59:53.170Z,8.80
2023-03-19T20:02:33.265Z,8.70
2023-03-19T20:05:00.435Z,8.80
2023-03-19T20:07:27.872Z,8.70
2023-03-19T20:09:55.192Z,8.70
2023-03-19T20:12:26.829Z,8.60
2023-03-19T20:14:53.998Z,8.60
2023-03-19T20:17:21.537Z,8.60
2023-03-19T20:19:48.897Z,8.80
2023-03-19T20:22:16.327Z,8.80
2023-03-19T20:24:43.319Z,8.60
2023-03-19T20:27:20.317Z,8.60
2023-03-19T20:30:03.153Z,8.70
2023-03-19T20:32:37.447Z,8.70
2023-03-19T20:35:10.806Z,8.80
2023-03-19T20:37:37.921Z,8.80
2023-03-19T20:40:05.545Z,8.80
2023-03-19T20:42:34.470Z,8.90
2023-03-19T20:45:02.406Z,9.00
2023-03-19T20:47:32.935Z,9.00
2023-03-19T20:49:59.994Z,9.00
2023-03-19T20:52:26.873Z,9.10
2023-03-19T20:54:54.134Z,9.30
2023-03-19T20:57:31.559Z,9.30
2023-03-19T21:00:11.551Z,9.20
2023-03-19T21:02:38.435Z,9.10
2023-03-19T21:05:07.810Z,9.10
2023-03-19T21:07:34.892Z,9.10
2023-03-19T21:10:06.563Z,9.20
2023-03-19T21:12:36.161Z,9.20
2023-03-19T21:15:03.694Z,9.30
2023-03-19T21:17:30.796Z,9.30
2023-03-19T21:19:57.964Z,9.30
2023-03-19T21:22:28.671Z,9.40
2023-03-19T21:25:04.344Z,9.50
2023-03-19T21:27:34.647Z,9.30
2023-03-19T21:30:03.318Z,9.40
2023-03-19T21:32:30.388Z,9.30
2023-03-19T21:34:57.534Z,9.30
2023-03-19T21:37:24.690Z,9.20
2023-03-19T21:39:52.080Z,9.10
2023-03-19T21:42:22.726Z,9.20
2023-03-19T21:44:56.905Z,9.10
2023-03-19T21:47:25.841Z,9.20
2023-03-19T21:49:52.935Z,9.40
2023-03-19T21:52:22.298Z,9.40
2023-03-19T21:54:49.959Z,9.60
2023-03-19T21:57:17.518Z,9.50
2023-03-19T21:59:45.510Z,9.50
2023-03-19T22:02:38.292Z,9.50
2023-03-19T22:05:27.064Z,9.50
2023-03-19T22:07:54.875Z,9.60
2023-03-19T22:10:26.975Z,9.70
2023-03-19T22:12:54.505Z,9.70
2023-03-19T22:15:30.794Z,9.70
2023-03-19T22:17:58.868Z,9.70
2023-03-19T22:20:26.605Z,9.60
2023-03-19T22:22:54.027Z,9.60
2023-03-19T22:25:22.363Z,9.70
2023-03-19T22:27:51.494Z,9.50
2023-03-19T22:30:37.079Z,9.70
2023-03-19T22:33:16.585Z,9.50
2023-03-19T22:35:44.761Z,9.30
2023-03-19T22:38:12.683Z,9.10
2023-03-19T22:40:45.843Z,9.10
2023-03-19T22:43:38.776Z,9.10
2023-03-19T22:46:12.953Z,9.10
2023-03-19T22:48:40.132Z,8.90
2023-03-19T22:51:08.158Z,8.80
2023-03-19T22:53:37.340Z,8.70
2023-03-19T22:56:04.749Z,8.80
2023-03-19T22:58:31.675Z,8.80
2023-03-19T23:00:58.647Z,8.70
2023-03-19T23:03:31.013Z,8.80
2023-03-19T23:06:03.490Z,9.00
2023-03-19T23:08:30.382Z,9.00
2023-03-19T23:10:57.965Z,8.80
2023-03-19T23:13:25.067Z,9.00
2023-03-19T23:15:57.173Z,9.10
2023-03-19T23:18:36.581Z,9.10
2023-03-19T23:21:04.450Z,9.20
2023-03-19T23:23:31.841Z,9.00
2023-03-19T23:25:58.790Z,9.20
2023-03-19T23:28:33.971Z,9.20
2023-03-19T23:31:05.564Z,9.00
2023-03-19T23:33:32.818Z,9.00
2023-03-19T23:36:00.552Z,8.90
2023-03-19T23:38:28.362Z,8.90
2023-03-19T23:40:55.343Z,8.80
2023-03-19T23:43:28.020Z,8.90
2023-03-19T23:45:56.258Z,8.60
2023-03-19T23:48:25.950Z,8.40
2023-03-19T23:50:53.574Z,8.10
2023-03-19T23:53:23.479Z,8.00
2023-03-19T23:55:53.178Z,8.00
2023-03-19T23:58:20.532Z,7.80
